sensor_id;sensor_type;location;lat;lon;timestamp;pressure;altitude;pressure_sealevel;temperature;humidity
79692;BME280;69158;55.592;37.610;2023-05-14T00:00:07;99888.59;;;13.37;44.65
79692;BME280;69158;55.592;37.610;2023-05-14T00:02:54;99886.09;;;13.29;44.63
79692;BME280;69158;55.592;37.610;2023-05-14T00:05:40;99867.72;;;13.14;45.09
79692;BME280;69158;55.592;37.610;2023-05-14T00:08:25;99880.09;;;13.13;45.42
79692;BME280;69158;55.592;37.610;2023-05-14T00:11:11;99872.91;;;13.07;45.58
79692;BME280;69158;55.592;37.610;2023-05-14T00:13:58;99875.31;;;13.02;45.99
79692;BME280;69158;55.592;37.610;2023-05-14T00:16:45;99880.59;;;13.02;45.64
79692;BME280;69158;55.592;37.610;2023-05-14T00:19:32;99877.06;;;12.95;46.24
79692;BME280;69158;55.592;37.610;2023-05-14T00:22:21;99871.13;;;12.87;46.70
79692;BME280;69158;55.592;37.610;2023-05-14T00:25:07;99875.81;;;12.91;46.36
79692;BME280;69158;55.592;37.610;2023-05-14T00:27:54;99881.03;;;12.85;46.47
79692;BME280;69158;55.592;37.610;2023-05-14T00:30:40;99884.84;;;12.82;46.69
79692;BME280;69158;55.592;37.610;2023-05-14T00:33:28;99880.53;;;12.74;46.56
79692;BME280;69158;55.592;37.610;2023-05-14T00:36:15;99884.16;;;12.73;47.10
79692;BME280;69158;55.592;37.610;2023-05-14T00:39:02;99887.19;;;12.70;47.05
79692;BME280;69158;55.592;37.610;2023-05-14T00:41:48;99885.13;;;12.66;47.16
79692;BME280;69158;55.592;37.610;2023-05-14T00:44:34;99878.97;;;12.59;46.99
79692;BME280;69158;55.592;37.610;2023-05-14T00:47:22;99886.44;;;12.55;47.26
79692;BME280;69158;55.592;37.610;2023-05-14T00:50:09;99884.97;;;12.53;47.73
79692;BME280;69158;55.592;37.610;2023-05-14T00:52:55;99868.22;;;12.39;47.62
79692;BME280;69158;55.592;37.610;2023-05-14T00:55:41;99889.16;;;12.47;48.18
79692;BME280;69158;55.592;37.610;2023-05-14T00:58:28;99887.03;;;12.36;48.42
79692;BME280;69158;55.592;37.610;2023-05-14T01:01:14;99894.13;;;12.36;48.68
79692;BME280;69158;55.592;37.610;2023-05-14T01:04:01;99893.22;;;12.28;48.73
79692;BME280;69158;55.592;37.610;2023-05-14T01:10:23;99895.88;;;12.28;48.98
79692;BME280;69158;55.592;37.610;2023-05-14T01:13:19;99902.56;;;12.31;48.89
79692;BME280;69158;55.592;37.610;2023-05-14T01:16:11;99900.31;;;12.28;48.82
79692;BME280;69158;55.592;37.610;2023-05-14T01:18:59;99881.75;;;12.15;48.95
79692;BME280;69158;55.592;37.610;2023-05-14T01:21:47;99903.66;;;12.22;48.89
79692;BME280;69158;55.592;37.610;2023-05-14T01:24:34;99897.16;;;12.18;48.75
79692;BME280;69158;55.592;37.610;2023-05-14T01:27:43;99903.31;;;12.25;49.40
79692;BME280;69158;55.592;37.610;2023-05-14T01:30:36;99912.81;;;12.26;49.10
79692;BME280;69158;55.592;37.610;2023-05-14T01:33:26;99902.84;;;12.21;49.51
79692;BME280;69158;55.592;37.610;2023-05-14T01:36:14;99915.66;;;12.24;49.45
79692;BME280;69158;55.592;37.610;2023-05-14T01:39:00;99925.53;;;12.22;49.16
79692;BME280;69158;55.592;37.610;2023-05-14T01:41:47;99925.91;;;12.19;49.55
79692;BME280;69158;55.592;37.610;2023-05-14T01:44:35;99928.16;;;12.22;49.49
79692;BME280;69158;55.592;37.610;2023-05-14T01:47:21;99924.38;;;12.25;49.68
79692;BME280;69158;55.592;37.610;2023-05-14T01:50:10;99918.91;;;12.26;49.09
79692;BME280;69158;55.592;37.610;2023-05-14T01:52:58;99924.44;;;12.32;49.19
79692;BME280;69158;55.592;37.610;2023-05-14T01:55:44;99928.34;;;12.36;49.04
79692;BME280;69158;55.592;37.610;2023-05-14T01:58:31;99912.09;;;12.32;48.81
79692;BME280;69158;55.592;37.610;2023-05-14T02:01:19;99928.78;;;12.39;49.18
79692;BME280;69158;55.592;37.610;2023-05-14T02:04:05;99922.13;;;12.43;49.65
79692;BME280;69158;55.592;37.610;2023-05-14T02:06:51;99911.00;;;12.41;49.04
79692;BME280;69158;55.592;37.610;2023-05-14T02:09:37;99926.03;;;12.47;48.85
79692;BME280;69158;55.592;37.610;2023-05-14T02:12:29;99921.56;;;12.48;49.24
79692;BME280;69158;55.592;37.610;2023-05-14T02:15:15;99926.41;;;12.44;48.87
79692;BME280;69158;55.592;37.610;2023-05-14T02:18:02;99933.91;;;12.47;49.23
79692;BME280;69158;55.592;37.610;2023-05-14T02:20:49;99930.94;;;12.50;49.06
79692;BME280;69158;55.592;37.610;2023-05-14T02:23:35;99943.47;;;12.48;49.11
79692;BME280;69158;55.592;37.610;2023-05-14T02:26:22;99921.53;;;12.41;49.15
79692;BME280;69158;55.592;37.610;2023-05-14T02:29:08;99915.59;;;12.39;48.94
79692;BME280;69158;55.592;37.610;2023-05-14T02:31:55;99936.66;;;12.54;48.99
79692;BME280;69158;55.592;37.610;2023-05-14T02:34:41;99936.19;;;12.50;48.63
79692;BME280;69158;55.592;37.610;2023-05-14T02:37:27;99919.97;;;12.47;48.65
79692;BME280;69158;55.592;37.610;2023-05-14T02:40:14;99947.13;;;12.68;48.73
79692;BME280;69158;55.592;37.610;2023-05-14T02:43:01;99945.13;;;12.70;48.79
79692;BME280;69158;55.592;37.610;2023-05-14T02:45:46;99945.13;;;12.70;48.75
79692;BME280;69158;55.592;37.610;2023-05-14T02:48:32;99940.94;;;12.76;48.33
79692;BME280;69158;55.592;37.610;2023-05-14T02:51:19;99955.97;;;12.82;48.32
79692;BME280;69158;55.592;37.610;2023-05-14T02:54:06;99943.38;;;12.78;48.21
79692;BME280;69158;55.592;37.610;2023-05-14T02:56:51;99948.34;;;12.87;47.98
79692;BME280;69158;55.592;37.610;2023-05-14T02:59:37;99949.59;;;12.91;48.05
79692;BME280;69158;55.592;37.610;2023-05-14T03:02:24;99962.03;;;12.97;47.75
79692;BME280;69158;55.592;37.610;2023-05-14T03:05:11;99958.56;;;12.97;47.76
79692;BME280;69158;55.592;37.610;2023-05-14T03:07:57;99946.38;;;12.96;47.79
79692;BME280;69158;55.592;37.610;2023-05-14T03:10:43;99964.69;;;13.04;47.82
79692;BME280;69158;55.592;37.610;2023-05-14T03:13:35;99952.78;;;13.08;47.65
79692;BME280;69158;55.592;37.610;2023-05-14T03:16:23;99960.16;;;13.12;47.89
79692;BME280;69158;55.592;37.610;2023-05-14T03:19:10;99969.84;;;13.33;47.27
79692;BME280;69158;55.592;37.610;2023-05-14T03:21:57;99969.50;;;13.36;47.79
79692;BME280;69158;55.592;37.610;2023-05-14T03:24:44;99975.38;;;13.38;46.62
79692;BME280;69158;55.592;37.610;2023-05-14T03:27:31;99970.22;;;13.51;46.83
79692;BME280;69158;55.592;37.610;2023-05-14T03:30:18;99975.97;;;13.61;46.49
79692;BME280;69158;55.592;37.610;2023-05-14T03:33:04;99962.78;;;13.61;46.70
79692;BME280;69158;55.592;37.610;2023-05-14T03:35:52;99954.47;;;13.64;46.09
79692;BME280;69158;55.592;37.610;2023-05-14T03:38:37;99974.28;;;13.82;46.11
79692;BME280;69158;55.592;37.610;2023-05-14T03:41:24;99976.06;;;13.75;46.45
79692;BME280;69158;55.592;37.610;2023-05-14T03:44:10;99967.56;;;13.79;46.49
79692;BME280;69158;55.592;37.610;2023-05-14T03:46:56;99977.41;;;13.98;45.86
79692;BME280;69158;55.592;37.610;2023-05-14T03:49:43;99965.69;;;14.07;45.79
79692;BME280;69158;55.592;37.610;2023-05-14T03:52:31;99978.78;;;14.22;45.30
79692;BME280;69158;55.592;37.610;2023-05-14T03:55:20;99981.25;;;14.24;45.47
79692;BME280;69158;55.592;37.610;2023-05-14T03:58:12;99984.97;;;14.36;45.30
79692;BME280;69158;55.592;37.610;2023-05-14T04:00:58;99972.59;;;14.36;44.84
79692;BME280;69158;55.592;37.610;2023-05-14T04:03:45;99979.75;;;14.56;45.11
79692;BME280;69158;55.592;37.610;2023-05-14T04:06:32;99971.81;;;14.49;44.68
79692;BME280;69158;55.592;37.610;2023-05-14T04:09:18;99981.03;;;14.66;43.93
79692;BME280;69158;55.592;37.610;2023-05-14T04:12:05;99980.63;;;14.76;43.81
79692;BME280;69158;55.592;37.610;2023-05-14T04:14:51;99988.81;;;14.87;43.63
79692;BME280;69158;55.592;37.610;2023-05-14T04:17:38;99977.19;;;14.82;43.69
79692;BME280;69158;55.592;37.610;2023-05-14T04:20:24;99990.22;;;14.90;43.26
79692;BME280;69158;55.592;37.610;2023-05-14T04:23:11;100000.63;;;14.91;43.25
79692;BME280;69158;55.592;37.610;2023-05-14T04:26:00;99997.75;;;14.86;43.27
79692;BME280;69158;55.592;37.610;2023-05-14T04:28:49;99999.56;;;14.86;43.11
79692;BME280;69158;55.592;37.610;2023-05-14T04:31:37;99984.09;;;14.70;43.46
79692;BME280;69158;55.592;37.610;2023-05-14T04:34:25;99998.75;;;14.85;43.21
79692;BME280;69158;55.592;37.610;2023-05-14T04:37:11;100002.03;;;14.94;43.33
79692;BME280;69158;55.592;37.610;2023-05-14T04:39:57;99996.53;;;14.89;42.81
79692;BME280;69158;55.592;37.610;2023-05-14T04:42:44;100003.03;;;14.93;43.05
79692;BME280;69158;55.592;37.610;2023-05-14T04:45:30;99998.38;;;14.88;43.00
79692;BME280;69158;55.592;37.610;2023-05-14T04:48:17;99999.56;;;14.79;43.53
79692;BME280;69158;55.592;37.610;2023-05-14T04:51:03;99989.19;;;14.78;43.14
79692;BME280;69158;55.592;37.610;2023-05-14T04:53:49;99987.38;;;14.85;43.05
79692;BME280;69158;55.592;37.610;2023-05-14T04:56:37;100004.91;;;15.19;42.58
79692;BME280;69158;55.592;37.610;2023-05-14T04:59:23;99996.19;;;15.44;42.31
79692;BME280;69158;55.592;37.610;2023-05-14T05:02:08;99992.56;;;15.72;41.11
79692;BME280;69158;55.592;37.610;2023-05-14T05:04:56;100000.50;;;15.72;41.63
79692;BME280;69158;55.592;37.610;2023-05-14T05:07:42;100004.97;;;15.71;41.46
79692;BME280;69158;55.592;37.610;2023-05-14T05:10:32;100006.19;;;15.82;41.48
79692;BME280;69158;55.592;37.610;2023-05-14T05:13:19;100010.28;;;15.78;41.42
79692;BME280;69158;55.592;37.610;2023-05-14T05:16:06;100003.75;;;15.80;41.35
79692;BME280;69158;55.592;37.610;2023-05-14T05:18:53;100009.25;;;15.59;41.75
79692;BME280;69158;55.592;37.610;2023-05-14T05:21:39;99995.56;;;15.49;41.66
79692;BME280;69158;55.592;37.610;2023-05-14T05:24:25;100006.97;;;15.36;42.08
79692;BME280;69158;55.592;37.610;2023-05-14T05:27:11;99994.75;;;15.16;42.86
79692;BME280;69158;55.592;37.610;2023-05-14T05:29:57;100008.81;;;15.29;42.38
79692;BME280;69158;55.592;37.610;2023-05-14T05:32:44;99991.72;;;15.38;42.00
79692;BME280;69158;55.592;37.610;2023-05-14T05:35:34;100011.09;;;15.78;41.73
79692;BME280;69158;55.592;37.610;2023-05-14T05:38:20;100001.06;;;15.94;40.88
79692;BME280;69158;55.592;37.610;2023-05-14T05:41:11;100003.50;;;16.02;40.86
79692;BME280;69158;55.592;37.610;2023-05-14T05:43:57;100015.50;;;16.17;40.32
79692;BME280;69158;55.592;37.610;2023-05-14T05:46:43;100007.44;;;16.50;39.82
79692;BME280;69158;55.592;37.610;2023-05-14T05:49:29;100004.22;;;16.42;39.89
79692;BME280;69158;55.592;37.610;2023-05-14T05:52:15;100001.91;;;15.81;40.52
79692;BME280;69158;55.592;37.610;2023-05-14T05:55:01;99991.53;;;15.73;40.52
79692;BME280;69158;55.592;37.610;2023-05-14T05:57:48;99999.81;;;16.09;40.42
79692;BME280;69158;55.592;37.610;2023-05-14T06:00:35;99950.75;;;16.13;39.78
79692;BME280;69158;55.592;37.610;2023-05-14T06:03:23;99987.44;;;16.54;39.28
79692;BME280;69158;55.592;37.610;2023-05-14T06:06:10;99995.22;;;16.49;39.48
79692;BME280;69158;55.592;37.610;2023-05-14T06:08:58;99997.47;;;16.46;39.00
79692;BME280;69158;55.592;37.610;2023-05-14T06:11:46;99999.53;;;16.44;38.70
79692;BME280;69158;55.592;37.610;2023-05-14T06:14:32;99981.97;;;16.49;38.83
79692;BME280;69158;55.592;37.610;2023-05-14T06:17:20;99981.09;;;16.68;38.61
79692;BME280;69158;55.592;37.610;2023-05-14T06:20:06;99964.44;;;17.24;37.27
79692;BME280;69158;55.592;37.610;2023-05-14T06:22:55;99988.31;;;18.83;34.50
79692;BME280;69158;55.592;37.610;2023-05-14T06:25:44;99979.47;;;20.12;31.53
79692;BME280;69158;55.592;37.610;2023-05-14T06:28:31;99967.66;;;21.16;29.85
79692;BME280;69158;55.592;37.610;2023-05-14T06:31:18;99982.06;;;21.32;28.69
79692;BME280;69158;55.592;37.610;2023-05-14T06:34:04;99979.53;;;21.75;28.39
79692;BME280;69158;55.592;37.610;2023-05-14T06:36:50;99980.41;;;22.84;26.74
79692;BME280;69158;55.592;37.610;2023-05-14T06:39:37;99978.50;;;23.38;26.10
79692;BME280;69158;55.592;37.610;2023-05-14T06:42:23;99977.25;;;23.88;23.84
79692;BME280;69158;55.592;37.610;2023-05-14T06:45:10;99963.56;;;24.31;23.44
79692;BME280;69158;55.592;37.610;2023-05-14T06:48:00;99974.22;;;24.89;22.96
79692;BME280;69158;55.592;37.610;2023-05-14T06:50:47;99980.84;;;24.66;22.86
79692;BME280;69158;55.592;37.610;2023-05-14T06:53:35;99979.53;;;24.78;22.94
79692;BME280;69158;55.592;37.610;2023-05-14T06:56:21;99976.06;;;25.94;21.76
79692;BME280;69158;55.592;37.610;2023-05-14T06:59:07;99981.09;;;26.31;21.37
79692;BME280;69158;55.592;37.610;2023-05-14T07:01:54;99967.97;;;24.78;21.82
79692;BME280;69158;55.592;37.610;2023-05-14T07:04:44;99986.56;;;23.38;23.45
79692;BME280;69158;55.592;37.610;2023-05-14T07:07:30;99979.09;;;22.87;24.35
79692;BME280;69158;55.592;37.610;2023-05-14T07:10:18;99984.53;;;22.05;25.45
79692;BME280;69158;55.592;37.610;2023-05-14T07:13:07;99989.00;;;21.99;25.84
79692;BME280;69158;55.592;37.610;2023-05-14T07:15:55;99985.38;;;21.55;25.63
79692;BME280;69158;55.592;37.610;2023-05-14T07:18:43;99994.50;;;20.81;26.10
79692;BME280;69158;55.592;37.610;2023-05-14T07:21:32;100001.34;;;20.25;27.31
79692;BME280;69158;55.592;37.610;2023-05-14T07:24:18;99997.03;;;21.33;26.18
79692;BME280;69158;55.592;37.610;2023-05-14T07:27:04;100004.88;;;21.89;24.93
79692;BME280;69158;55.592;37.610;2023-05-14T07:29:49;99998.16;;;21.53;24.34
79692;BME280;69158;55.592;37.610;2023-05-14T07:32:36;99995.03;;;21.11;25.02
79692;BME280;69158;55.592;37.610;2023-05-14T07:35:24;100012.81;;;20.37;25.70
79692;BME280;69158;55.592;37.610;2023-05-14T07:38:10;100014.81;;;19.72;26.57
79692;BME280;69158;55.592;37.610;2023-05-14T07:40:56;100018.41;;;19.66;26.58
79692;BME280;69158;55.592;37.610;2023-05-14T07:43:43;100018.41;;;19.78;26.89
79692;BME280;69158;55.592;37.610;2023-05-14T07:46:30;100013.78;;;19.85;26.93
79692;BME280;69158;55.592;37.610;2023-05-14T07:49:15;100003.72;;;19.75;27.50
79692;BME280;69158;55.592;37.610;2023-05-14T07:52:01;100009.84;;;19.64;27.60
79692;BME280;69158;55.592;37.610;2023-05-14T07:54:50;100016.91;;;19.29;28.32
79692;BME280;69158;55.592;37.610;2023-05-14T07:57:37;100023.00;;;18.76;28.95
79692;BME280;69158;55.592;37.610;2023-05-14T08:00:23;100021.72;;;18.42;29.38
79692;BME280;69158;55.592;37.610;2023-05-14T08:03:10;100025.06;;;18.38;29.58
79692;BME280;69158;55.592;37.610;2023-05-14T08:05:56;100023.34;;;18.43;29.58
79692;BME280;69158;55.592;37.610;2023-05-14T08:08:42;100018.84;;;18.44;29.75
79692;BME280;69158;55.592;37.610;2023-05-14T08:11:30;100027.06;;;18.61;29.55
79692;BME280;69158;55.592;37.610;2023-05-14T08:14:16;100025.06;;;18.56;29.48
79692;BME280;69158;55.592;37.610;2023-05-14T08:17:02;100008.75;;;18.71;29.54
79692;BME280;69158;55.592;37.610;2023-05-14T08:19:48;100026.28;;;18.90;29.04
79692;BME280;69158;55.592;37.610;2023-05-14T08:22:34;100022.75;;;19.08;28.73
79692;BME280;69158;55.592;37.610;2023-05-14T08:25:22;100004.44;;;18.88;28.92
79692;BME280;69158;55.592;37.610;2023-05-14T08:28:08;100011.22;;;19.14;28.55
79692;BME280;69158;55.592;37.610;2023-05-14T08:30:55;100014.13;;;19.54;28.14
79692;BME280;69158;55.592;37.610;2023-05-14T08:33:44;100017.47;;;19.49;28.06
79692;BME280;69158;55.592;37.610;2023-05-14T08:36:30;100009.28;;;19.74;27.14
79692;BME280;69158;55.592;37.610;2023-05-14T08:39:16;100012.34;;;20.29;26.66
79692;BME280;69158;55.592;37.610;2023-05-14T08:42:05;100013.47;;;20.96;25.61
79692;BME280;69158;55.592;37.610;2023-05-14T08:44:59;100009.81;;;21.02;25.71
79692;BME280;69158;55.592;37.610;2023-05-14T08:47:49;100002.03;;;21.12;26.02
79692;BME280;69158;55.592;37.610;2023-05-14T08:50:36;100014.53;;;21.12;26.08
79692;BME280;69158;55.592;37.610;2023-05-14T08:53:23;99991.81;;;20.81;26.66
79692;BME280;69158;55.592;37.610;2023-05-14T08:56:09;99997.25;;;20.86;26.42
79692;BME280;69158;55.592;37.610;2023-05-14T08:58:56;100010.94;;;21.18;25.77
79692;BME280;69158;55.592;37.610;2023-05-14T09:01:52;99999.91;;;20.86;26.10
79692;BME280;69158;55.592;37.610;2023-05-14T09:04:39;100009.66;;;20.92;25.92
79692;BME280;69158;55.592;37.610;2023-05-14T09:07:26;100012.50;;;21.02;25.82
79692;BME280;69158;55.592;37.610;2023-05-14T09:10:16;100016.03;;;20.91;26.33
79692;BME280;69158;55.592;37.610;2023-05-14T09:13:05;100012.72;;;21.29;25.49
79692;BME280;69158;55.592;37.610;2023-05-14T09:15:52;100000.50;;;21.66;25.42
79692;BME280;69158;55.592;37.610;2023-05-14T09:18:42;99997.28;;;23.75;22.67
79692;BME280;69158;55.592;37.610;2023-05-14T09:21:29;99980.13;;;25.92;20.24
79692;BME280;69158;55.592;37.610;2023-05-14T09:24:20;99992.97;;;26.25;19.27
79692;BME280;69158;55.592;37.610;2023-05-14T09:27:08;99985.00;;;25.39;19.85
79692;BME280;69158;55.592;37.610;2023-05-14T09:29:54;100005.81;;;24.66;20.79
79692;BME280;69158;55.592;37.610;2023-05-14T09:32:42;99992.09;;;23.59;22.11
79692;BME280;69158;55.592;37.610;2023-05-14T09:35:28;99985.97;;;22.12;24.16
79692;BME280;69158;55.592;37.610;2023-05-14T09:38:16;99990.16;;;20.92;26.08
79692;BME280;69158;55.592;37.610;2023-05-14T09:41:11;100005.38;;;20.51;26.84
79692;BME280;69158;55.592;37.610;2023-05-14T09:43:58;100006.25;;;20.05;27.82
79692;BME280;69158;55.592;37.610;2023-05-14T09:46:48;99990.25;;;19.93;27.92
79692;BME280;69158;55.592;37.610;2023-05-14T09:49:34;100004.84;;;19.68;28.16
79692;BME280;69158;55.592;37.610;2023-05-14T09:52:22;100001.97;;;19.81;27.81
79692;BME280;69158;55.592;37.610;2023-05-14T09:55:08;99998.59;;;19.85;27.83
79692;BME280;69158;55.592;37.610;2023-05-14T09:57:54;100006.69;;;20.37;27.18
79692;BME280;69158;55.592;37.610;2023-05-14T10:00:44;99969.25;;;22.00;24.96
79692;BME280;69158;55.592;37.610;2023-05-14T10:03:31;99987.81;;;23.31;23.03
79692;BME280;69158;55.592;37.610;2023-05-14T10:06:18;99987.94;;;22.66;23.24
79692;BME280;69158;55.592;37.610;2023-05-14T10:09:10;99999.34;;;21.79;24.48
79692;BME280;69158;55.592;37.610;2023-05-14T10:11:59;99988.63;;;20.96;25.96
79692;BME280;69158;55.592;37.610;2023-05-14T10:14:47;99993.69;;;20.52;25.98
79692;BME280;69158;55.592;37.610;2023-05-14T10:17:43;99990.47;;;20.38;26.56
79692;BME280;69158;55.592;37.610;2023-05-14T10:20:33;99987.22;;;21.71;25.23
79692;BME280;69158;55.592;37.610;2023-05-14T10:23:21;99995.81;;;21.73;25.08
79692;BME280;69158;55.592;37.610;2023-05-14T10:26:07;99996.41;;;21.42;25.32
79692;BME280;69158;55.592;37.610;2023-05-14T10:28:57;99992.19;;;20.73;25.43
79692;BME280;69158;55.592;37.610;2023-05-14T10:31:52;99997.44;;;20.68;26.07
79692;BME280;69158;55.592;37.610;2023-05-14T10:34:42;99969.72;;;20.69;25.64
79692;BME280;69158;55.592;37.610;2023-05-14T10:37:31;99985.16;;;21.12;25.30
79692;BME280;69158;55.592;37.610;2023-05-14T10:40:19;99977.81;;;22.68;23.94
79692;BME280;69158;55.592;37.610;2023-05-14T10:43:11;99977.50;;;23.81;21.62
79692;BME280;69158;55.592;37.610;2023-05-14T10:46:21;99970.41;;;22.75;22.76
79692;BME280;69158;55.592;37.610;2023-05-14T10:49:07;99976.50;;;22.05;23.54
79692;BME280;69158;55.592;37.610;2023-05-14T10:51:54;99983.69;;;21.33;24.57
79692;BME280;69158;55.592;37.610;2023-05-14T10:57:41;99975.56;;;20.54;25.18
79692;BME280;69158;55.592;37.610;2023-05-14T11:00:28;99968.97;;;20.57;25.41
79692;BME280;69158;55.592;37.610;2023-05-14T11:03:18;99983.94;;;20.46;25.54
79692;BME280;69158;55.592;37.610;2023-05-14T11:06:06;99957.06;;;20.93;24.63
79692;BME280;69158;55.592;37.610;2023-05-14T11:08:53;99976.56;;;21.21;24.23
79692;BME280;69158;55.592;37.610;2023-05-14T11:11:39;99965.88;;;21.55;24.51
79692;BME280;69158;55.592;37.610;2023-05-14T11:14:25;99962.81;;;21.13;24.97
79692;BME280;69158;55.592;37.610;2023-05-14T11:17:11;99967.66;;;21.33;24.68
79692;BME280;69158;55.592;37.610;2023-05-14T11:19:57;99968.97;;;21.47;24.85
79692;BME280;69158;55.592;37.610;2023-05-14T11:22:45;99973.97;;;21.43;24.22
79692;BME280;69158;55.592;37.610;2023-05-14T11:25:32;99976.31;;;21.23;24.84
79692;BME280;69158;55.592;37.610;2023-05-14T11:28:20;99973.97;;;20.81;25.08
79692;BME280;69158;55.592;37.610;2023-05-14T11:31:11;99970.22;;;20.66;25.87
79692;BME280;69158;55.592;37.610;2023-05-14T11:33:59;99963.78;;;20.78;25.76
79692;BME280;69158;55.592;37.610;2023-05-14T11:36:46;99955.66;;;21.18;24.98
79692;BME280;69158;55.592;37.610;2023-05-14T11:39:34;99966.38;;;21.35;25.23
79692;BME280;69158;55.592;37.610;2023-05-14T11:42:21;99963.03;;;21.45;25.48
79692;BME280;69158;55.592;37.610;2023-05-14T11:45:12;99961.28;;;21.34;25.52
79692;BME280;69158;55.592;37.610;2023-05-14T11:48:11;99963.72;;;21.35;25.29
79692;BME280;69158;55.592;37.610;2023-05-14T11:50:59;99963.56;;;20.97;25.47
79692;BME280;69158;55.592;37.610;2023-05-14T11:53:45;99975.94;;;20.46;26.13
79692;BME280;69158;55.592;37.610;2023-05-14T11:56:32;99967.44;;;19.98;27.05
79692;BME280;69158;55.592;37.610;2023-05-14T11:59:18;99957.59;;;20.10;26.72
79692;BME280;69158;55.592;37.610;2023-05-14T12:02:11;99969.19;;;19.92;27.43
79692;BME280;69158;55.592;37.610;2023-05-14T12:04:59;99973.59;;;19.86;27.49
79692;BME280;69158;55.592;37.610;2023-05-14T12:07:46;99943.81;;;19.89;27.05
79692;BME280;69158;55.592;37.610;2023-05-14T12:10:41;99969.06;;;19.87;27.02
79692;BME280;69158;55.592;37.610;2023-05-14T12:13:28;99967.47;;;19.63;27.72
79692;BME280;69158;55.592;37.610;2023-05-14T12:16:14;99958.56;;;19.45;28.04
79692;BME280;69158;55.592;37.610;2023-05-14T12:19:04;99966.66;;;19.62;27.90
79692;BME280;69158;55.592;37.610;2023-05-14T12:21:51;99966.63;;;19.51;28.27
79692;BME280;69158;55.592;37.610;2023-05-14T12:24:38;99959.47;;;19.51;28.11
79692;BME280;69158;55.592;37.610;2023-05-14T12:27:27;99965.59;;;19.63;27.59
79692;BME280;69158;55.592;37.610;2023-05-14T12:30:16;99966.19;;;19.77;27.67
79692;BME280;69158;55.592;37.610;2023-05-14T12:33:02;99947.41;;;19.72;27.44
79692;BME280;69158;55.592;37.610;2023-05-14T12:35:49;99952.06;;;19.53;27.63
79692;BME280;69158;55.592;37.610;2023-05-14T12:38:36;99966.94;;;19.19;28.59
79692;BME280;69158;55.592;37.610;2023-05-14T12:41:32;99969.63;;;18.89;29.29
79692;BME280;69158;55.592;37.610;2023-05-14T12:44:18;99943.16;;;18.65;29.63
79692;BME280;69158;55.592;37.610;2023-05-14T12:47:14;99964.56;;;18.70;29.58
79692;BME280;69158;55.592;37.610;2023-05-14T12:50:04;99965.78;;;18.55;29.66
79692;BME280;69158;55.592;37.610;2023-05-14T12:52:51;99972.50;;;18.58;30.02
79692;BME280;69158;55.592;37.610;2023-05-14T12:55:37;99971.22;;;18.61;30.00
79692;BME280;69158;55.592;37.610;2023-05-14T12:58:23;99951.13;;;18.65;30.11
79692;BME280;69158;55.592;37.610;2023-05-14T13:01:09;99958.44;;;18.69;30.17
79692;BME280;69158;55.592;37.610;2023-05-14T13:04:01;99942.44;;;18.57;30.10
79692;BME280;69158;55.592;37.610;2023-05-14T13:07:05;99958.56;;;18.74;30.13
79692;BME280;69158;55.592;37.610;2023-05-14T13:09:59;99965.88;;;18.79;30.35
79692;BME280;69158;55.592;37.610;2023-05-14T13:12:46;99956.09;;;18.61;30.57
79692;BME280;69158;55.592;37.610;2023-05-14T13:15:35;99955.75;;;18.57;30.28
79692;BME280;69158;55.592;37.610;2023-05-14T13:18:22;99970.06;;;18.56;30.39
79692;BME280;69158;55.592;37.610;2023-05-14T13:21:13;99971.97;;;18.68;30.34
79692;BME280;69158;55.592;37.610;2023-05-14T13:24:03;99966.09;;;18.77;29.61
79692;BME280;69158;55.592;37.610;2023-05-14T13:26:49;99969.72;;;18.83;29.93
79692;BME280;69158;55.592;37.610;2023-05-14T13:29:38;99959.78;;;18.90;29.66
79692;BME280;69158;55.592;37.610;2023-05-14T13:32:25;99933.09;;;18.96;29.77
79692;BME280;69158;55.592;37.610;2023-05-14T13:35:12;99948.84;;;19.10;29.81
79692;BME280;69158;55.592;37.610;2023-05-14T13:38:02;99967.66;;;18.85;30.22
79692;BME280;69158;55.592;37.610;2023-05-14T13:40:50;99971.13;;;18.85;30.27
79692;BME280;69158;55.592;37.610;2023-05-14T13:43:39;99951.88;;;18.72;30.68
79692;BME280;69158;55.592;37.610;2023-05-14T13:46:25;99967.03;;;18.53;30.86
79692;BME280;69158;55.592;37.610;2023-05-14T13:49:13;99966.81;;;18.36;31.04
79692;BME280;69158;55.592;37.610;2023-05-14T13:51:58;99975.66;;;18.30;31.36
79692;BME280;69158;55.592;37.610;2023-05-14T13:54:46;99969.03;;;18.39;31.69
79692;BME280;69158;55.592;37.610;2023-05-14T13:57:34;99975.03;;;18.53;31.54
79692;BME280;69158;55.592;37.610;2023-05-14T14:00:22;99972.50;;;18.40;31.42
79692;BME280;69158;55.592;37.610;2023-05-14T14:03:08;99973.97;;;18.36;31.73
79692;BME280;69158;55.592;37.610;2023-05-14T14:05:58;99938.50;;;18.12;31.89
79692;BME280;69158;55.592;37.610;2023-05-14T14:08:50;99967.69;;;18.30;32.16
79692;BME280;69158;55.592;37.610;2023-05-14T14:11:56;99958.41;;;18.21;31.69
79692;BME280;69158;55.592;37.610;2023-05-14T14:14:45;99978.63;;;18.22;31.60
79692;BME280;69158;55.592;37.610;2023-05-14T14:17:31;99967.72;;;18.12;31.58
79692;BME280;69158;55.592;37.610;2023-05-14T14:20:20;99953.78;;;17.98;32.18
79692;BME280;69158;55.592;37.610;2023-05-14T14:23:09;99972.66;;;17.90;31.85
79692;BME280;69158;55.592;37.610;2023-05-14T14:25:56;99965.06;;;17.94;32.21
79692;BME280;69158;55.592;37.610;2023-05-14T14:28:51;99974.78;;;17.82;32.57
79692;BME280;69158;55.592;37.610;2023-05-14T14:31:40;99948.56;;;17.42;33.05
79692;BME280;69158;55.592;37.610;2023-05-14T14:34:50;99980.59;;;17.47;33.39
79692;BME280;69158;55.592;37.610;2023-05-14T14:37:39;99974.06;;;17.43;33.61
79692;BME280;69158;55.592;37.610;2023-05-14T14:40:37;99978.69;;;17.30;33.53